createdAt,value
2022-08-17T00:00:07.145Z,27.60
2022-08-17T00:02:41.142Z,27.60
2022-08-17T00:05:10.009Z,27.60
2022-08-17T00:07:36.871Z,27.60
2022-08-17T00:10:03.995Z,27.60
2022-08-17T00:12:51.264Z,27.50
2022-08-17T00:15:20.998Z,27.50
2022-08-17T00:17:50.560Z,27.50
2022-08-17T00:20:18.967Z,27.50
2022-08-17T00:22:50.542Z,27.50
2022-08-17T00:25:20.075Z,27.40
2022-08-17T00:27:47.043Z,27.40
2022-08-17T00:30:14.478Z,27.40
2022-08-17T00:33:14.032Z,27.30
2022-08-17T00:35:34.661Z,27.40
2022-08-17T00:38:01.414Z,27.30
2022-08-17T00:40:44.475Z,27.40
2022-08-17T00:43:23.204Z,27.40
2022-08-17T00:45:49.998Z,27.30
2022-08-17T00:48:28.965Z,27.30
2022-08-17T00:51:21.618Z,27.30
2022-08-17T00:53:56.307Z,27.30
2022-08-17T00:56:32.545Z,27.30
2022-08-17T00:59:01.239Z,27.30
2022-08-17T01:01:28.964Z,27.30
2022-08-17T01:03:59.632Z,27.30
2022-08-17T01:06:28.330Z,27.30
2022-08-17T01:08:59.383Z,27.20
2022-08-17T01:11:29.260Z,27.20
2022-08-17T01:13:56.155Z,27.10
2022-08-17T01:16:31.898Z,27.10
2022-08-17T01:19:18.208Z,27.00
2022-08-17T01:22:01.114Z,26.90
2022-08-17T01:24:29.151Z,26.90
2022-08-17T01:26:56.617Z,26.80
2022-08-17T01:29:25.745Z,26.80
2022-08-17T01:31:58.255Z,26.70
2022-08-17T01:34:31.586Z,26.70
2022-08-17T01:37:13.153Z,26.60
2022-08-17T01:39:59.334Z,26.60
2022-08-17T01:43:07.335Z,26.50
2022-08-17T01:45:42.917Z,26.50
2022-08-17T01:48:11.834Z,26.50
2022-08-17T01:50:43.441Z,26.50
2022-08-17T01:53:20.955Z,26.40
2022-08-17T01:55:51.622Z,26.40
2022-08-17T01:58:20.221Z,26.40
2022-08-17T02:01:01.207Z,26.40
2022-08-17T02:03:29.663Z,26.40
2022-08-17T02:05:57.539Z,26.50
2022-08-17T02:08:37.182Z,26.50
2022-08-17T02:11:15.682Z,26.50
2022-08-17T02:13:44.847Z,26.50
2022-08-17T02:16:12.395Z,26.50
2022-08-17T02:18:39.475Z,26.40
2022-08-17T02:21:07.224Z,26.50
2022-08-17T02:23:39.014Z,26.50
2022-08-17T02:26:06.767Z,26.50
2022-08-17T02:28:34.293Z,26.50
2022-08-17T02:31:10.011Z,26.50
2022-08-17T02:33:42.901Z,26.50
2022-08-17T02:36:12.989Z,26.50
2022-08-17T02:38:42.388Z,26.50
2022-08-17T02:41:09.667Z,26.60
2022-08-17T02:43:36.701Z,26.60
2022-08-17T02:46:03.593Z,26.60
2022-08-17T02:48:32.043Z,26.60
2022-08-17T02:51:00.758Z,26.60
2022-08-17T02:53:35.540Z,26.60
2022-08-17T02:56:04.161Z,26.70
2022-08-17T02:58:35.856Z,26.70
2022-08-17T03:01:06.190Z,26.70
2022-08-17T03:03:34.631Z,26.70
2022-08-17T03:06:02.558Z,26.70
2022-08-17T03:08:30.216Z,26.70
2022-08-17T03:10:57.430Z,26.70
2022-08-17T03:13:24.462Z,26.70
2022-08-17T03:15:51.459Z,26.70
2022-08-17T03:18:24.710Z,26.60
2022-08-17T03:20:57.256Z,26.60
2022-08-17T03:23:25.914Z,26.60
2022-08-17T03:25:55.728Z,26.60
2022-08-17T03:28:24.376Z,26.60
2022-08-17T03:30:52.112Z,26.60
2022-08-17T03:33:19.873Z,26.50
2022-08-17T03:35:47.304Z,26.50
2022-08-17T03:38:16.981Z,26.50
2022-08-17T03:40:57.509Z,26.50
2022-08-17T03:43:30.093Z,26.40
2022-08-17T03:46:34.126Z,26.40
2022-08-17T03:49:24.927Z,26.40
2022-08-17T03:52:11.619Z,26.40
2022-08-17T03:54:57.635Z,26.40
2022-08-17T03:57:26.042Z,26.40
2022-08-17T03:59:54.698Z,26.40
2022-08-17T04:02:30.032Z,26.40
2022-08-17T04:04:58.015Z,26.40
2022-08-17T04:07:29.026Z,26.40
2022-08-17T04:09:57.852Z,26.40
2022-08-17T04:12:26.591Z,26.30
2022-08-17T04:14:54.873Z,26.30
2022-08-17T04:17:26.206Z,26.30
2022-08-17T04:19:54.668Z,26.30
2022-08-17T04:22:32.089Z,26.30
2022-08-17T04:25:21.558Z,26.30
2022-08-17T04:27:48.751Z,26.30
2022-08-17T04:30:15.810Z,26.30
2022-08-17T04:33:08.602Z,26.30
2022-08-17T04:36:01.353Z,26.30
2022-08-17T04:38:39.042Z,26.30
2022-08-17T04:41:26.299Z,26.20
2022-08-17T04:43:56.125Z,26.20
2022-08-17T04:46:27.596Z,26.20
2022-08-17T04:48:57.679Z,26.20
2022-08-17T04:51:28.489Z,26.10
2022-08-17T04:54:06.943Z,26.10
2022-08-17T04:56:35.115Z,26.00
2022-08-17T04:59:07.516Z,26.00
2022-08-17T05:01:37.287Z,26.00
2022-08-17T05:04:33.565Z,25.90
2022-08-17T05:06:56.171Z,25.80
2022-08-17T05:09:23.142Z,25.80
2022-08-17T05:11:51.313Z,25.70
2022-08-17T05:14:18.232Z,25.70
2022-08-17T05:16:45.808Z,25.60
2022-08-17T05:19:12.580Z,25.50
2022-08-17T05:21:39.451Z,25.50
2022-08-17T05:24:38.184Z,25.50
2022-08-17T05:26:53.352Z,25.40
2022-08-17T05:29:22.194Z,25.40
2022-08-17T05:32:37.952Z,25.30
2022-08-17T05:34:59.923Z,25.30
2022-08-17T05:37:26.761Z,25.30
2022-08-17T05:39:54.492Z,25.30
2022-08-17T05:42:22.096Z,25.30
2022-08-17T05:44:48.836Z,25.20
2022-08-17T05:47:16.261Z,25.20
2022-08-17T05:49:43.150Z,25.20
2022-08-17T05:52:54.982Z,25.20
2022-08-17T05:55:50.639Z,25.30
2022-08-17T05:59:02.671Z,25.30
2022-08-17T06:02:05.272Z,25.20
2022-08-17T06:04:55.269Z,25.20
2022-08-17T06:07:37.272Z,25.20
2022-08-17T06:10:36.923Z,25.20
2022-08-17T06:13:28.563Z,25.20
2022-08-17T06:16:33.050Z,25.20
2022-08-17T06:19:15.769Z,25.20
2022-08-17T06:21:49.470Z,25.20
2022-08-17T06:24:41.608Z,25.20
2022-08-17T06:27:28.236Z,25.20
2022-08-17T06:30:21.000Z,25.20
2022-08-17T06:32:52.525Z,25.20
2022-08-17T06:35:37.428Z,25.20
2022-08-17T06:38:38.391Z,25.20
2022-08-17T06:41:41.782Z,25.20
2022-08-17T06:44:42.335Z,25.10
2022-08-17T06:47:41.995Z,25.10
2022-08-17T06:50:39.943Z,25.10
2022-08-17T06:53:36.343Z,25.00
2022-08-17T06:56:24.294Z,25.00
2022-08-17T06:59:19.627Z,25.00
2022-08-17T07:01:50.408Z,25.00
2022-08-17T07:04:29.045Z,25.00
2022-08-17T07:07:28.446Z,25.00
2022-08-17T07:09:59.940Z,24.90
2022-08-17T07:12:39.397Z,24.90
2022-08-17T07:15:21.703Z,24.90
2022-08-17T07:17:49.162Z,24.80
2022-08-17T07:20:21.121Z,24.80
2022-08-17T07:23:19.227Z,24.80
2022-08-17T07:25:46.063Z,24.70
2022-08-17T07:28:13.007Z,24.70
2022-08-17T07:30:50.108Z,24.70
2022-08-17T07:33:26.578Z,24.60
2022-08-17T07:35:53.987Z,24.70
2022-08-17T07:38:35.490Z,24.60
2022-08-17T07:41:08.469Z,24.60
2022-08-17T07:43:52.116Z,24.60
2022-08-17T07:47:06.842Z,24.60
2022-08-17T07:49:41.251Z,24.60
2022-08-17T07:52:50.397Z,24.60
2022-08-17T07:55:32.898Z,24.60
2022-08-17T07:58:00.187Z,24.60
2022-08-17T08:00:32.594Z,24.60
2022-08-17T08:03:31.920Z,24.60
2022-08-17T08:06:03.033Z,24.60
2022-08-17T08:08:42.654Z,24.60
2022-08-17T08:11:27.899Z,24.60
2022-08-17T08:13:54.883Z,24.60
2022-08-17T08:16:29.215Z,24.60
2022-08-17T08:19:01.325Z,24.60
2022-08-17T08:21:56.786Z,24.60
2022-08-17T08:24:49.852Z,24.60
2022-08-17T08:27:49.428Z,24.70
2022-08-17T08:30:21.469Z,24.70
2022-08-17T08:33:35.386Z,24.70
2022-08-17T08:37:14.210Z,24.70
2022-08-17T08:39:24.583Z,24.70
2022-08-17T08:42:35.544Z,24.70
2022-08-17T08:45:24.726Z,24.80
2022-08-17T08:48:46.124Z,24.80
2022-08-17T08:51:15.507Z,24.80
2022-08-17T08:54:01.333Z,24.90
2022-08-17T08:57:22.233Z,24.90
2022-08-17T09:00:17.787Z,25.00
2022-08-17T09:03:28.075Z,25.10
2022-08-17T09:06:37.534Z,25.10
2022-08-17T09:09:07.988Z,25.20
2022-08-17T09:12:02.123Z,25.20
2022-08-17T09:15:12.320Z,25.30
2022-08-17T09:19:01.473Z,25.30
2022-08-17T09:21:05.806Z,25.40
2022-08-17T09:23:37.759Z,25.50
2022-08-17T09:26:16.987Z,25.50
2022-08-17T09:28:52.563Z,25.60
2022-08-17T09:31:33.275Z,25.60
2022-08-17T09:34:09.738Z,25.60
2022-08-17T09:36:59.441Z,25.70
2022-08-17T09:40:02.223Z,25.70
2022-08-17T09:42:52.324Z,25.70
2022-08-17T09:45:50.562Z,25.70
2022-08-17T09:48:41.119Z,25.70
2022-08-17T09:51:32.619Z,25.70
2022-08-17T09:54:15.129Z,25.70
2022-08-17T09:57:35.005Z,25.70
2022-08-17T10:00:14.920Z,25.80
2022-08-17T10:03:00.507Z,25.80
2022-08-17T10:05:40.037Z,25.80
2022-08-17T10:08:34.993Z,25.80
2022-08-17T10:11:45.739Z,25.80
2022-08-17T10:14:44.031Z,25.90
2022-08-17T10:17:24.598Z,25.90
2022-08-17T10:20:07.409Z,26.00
2022-08-17T10:23:46.767Z,26.00
2022-08-17T10:26:24.973Z,26.00
2022-08-17T10:28:58.640Z,26.00
2022-08-17T10:31:39.672Z,26.10
2022-08-17T10:34:29.511Z,26.10
2022-08-17T10:37:33.898Z,26.10
2022-08-17T10:40:10.901Z,26.10
2022-08-17T10:43:29.404Z,26.20
2022-08-17T10:46:43.507Z,26.20
2022-08-17T10:49:21.145Z,26.20
2022-08-17T10:51:55.104Z,26.30
2022-08-17T10:54:25.079Z,26.30
2022-08-17T10:56:56.044Z,26.30
2022-08-17T10:59:34.966Z,26.40
2022-08-17T11:02:04.510Z,26.50
2022-08-17T11:04:49.610Z,26.50
2022-08-17T11:08:06.804Z,26.50
2022-08-17T11:11:06.292Z,26.60
2022-08-17T11:14:11.737Z,26.70
2022-08-17T11:17:21.942Z,26.80
2022-08-17T11:20:23.638Z,27.00
2022-08-17T11:23:07.403Z,27.20
2022-08-17T11:25:53.395Z,27.40
2022-08-17T11:28:34.564Z,27.50
2022-08-17T11:31:38.386Z,27.70
2022-08-17T11:34:33.882Z,28.00
2022-08-17T11:37:24.292Z,28.20
2022-08-17T11:40:36.094Z,28.40
2022-08-17T11:43:43.025Z,28.70
2022-08-17T11:47:15.950Z,28.90
2022-08-17T11:50:34.466Z,29.30
2022-08-17T11:53:01.505Z,29.50
2022-08-17T11:55:38.444Z,29.80
2022-08-17T11:58:34.180Z,30.00
2022-08-17T12:01:10.224Z,30.30
2022-08-17T12:03:54.356Z,30.50
2022-08-17T12:06:48.284Z,30.80
2022-08-17T12:09:34.480Z,31.00
2022-08-17T12:12:14.556Z,31.20
2022-08-17T12:15:10.627Z,31.40
2022-08-17T12:17:41.419Z,31.60
2022-08-17T12:20:33.334Z,31.80
2022-08-17T12:23:11.995Z,32.00
2022-08-17T12:26:07.732Z,32.20
2022-08-17T12:28:38.642Z,32.40
2022-08-17T12:31:21.626Z,32.60
2022-08-17T12:33:51.733Z,32.80
2022-08-17T12:36:28.226Z,32.90
2022-08-17T12:39:14.629Z,33.10
2022-08-17T12:41:53.246Z,33.30
2022-08-17T12:44:33.337Z,33.40
2022-08-17T12:47:22.408Z,33.50
2022-08-17T12:49:53.254Z,33.60
2022-08-17T12:52:24.600Z,33.80
2022-08-17T12:55:06.209Z,33.90
2022-08-17T12:57:38.850Z,34.00
2022-08-17T13:00:47.407Z,34.10
2022-08-17T13:03:24.412Z,34.10
2022-08-17T13:06:06.371Z,34.10
2022-08-17T13:08:42.844Z,34.20
2022-08-17T13:11:16.421Z,34.20
2022-08-17T13:13:51.265Z,34.20
2022-08-17T13:16:20.904Z,34.10
2022-08-17T13:18:49.471Z,34.10
2022-08-17T13:21:19.203Z,34.00
2022-08-17T13:24:01.967Z,33.90
2022-08-17T13:27:08.155Z,33.80
2022-08-17T13:29:51.453Z,33.80
2022-08-17T13:32:43.714Z,33.70
2022-08-17T13:35:39.366Z,33.50
2022-08-17T13:38:12.921Z,33.40
2022-08-17T13:40:53.050Z,33.30
2022-08-17T13:43:50.481Z,33.30
2022-08-17T13:46:31.270Z,33.20
2022-08-17T13:49:11.827Z,33.10
2022-08-17T13:51:49.513Z,33.10
2022-08-17T13:54:25.097Z,32.90
2022-08-17T13:57:06.150Z,33.00
2022-08-17T13:59:54.434Z,32.90
2022-08-17T14:02:28.657Z,32.90
2022-08-17T14:04:57.251Z,32.80
2022-08-17T14:07:34.425Z,32.80
2022-08-17T14:10:11.688Z,32.80
2022-08-17T14:12:41.831Z,32.80
2022-08-17T14:15:11.407Z,32.80
2022-08-17T14:17:39.267Z,32.80
2022-08-17T14:20:10.585Z,32.80
2022-08-17T14:22:43.758Z,32.80
2022-08-17T14:25:14.178Z,32.80
2022-08-17T14:27:51.922Z,32.80
2022-08-17T14:30:26.755Z,32.80
2022-08-17T14:32:56.538Z,32.80
2022-08-17T14:35:24.748Z,32.80
2022-08-17T14:37:52.843Z,32.80
2022-08-17T14:40:22.577Z,32.80
2022-08-17T14:42:49.973Z,32.80
2022-08-17T14:45:29.607Z,32.80
2022-08-17T14:48:08.222Z,32.70
2022-08-17T14:50:38.826Z,32.70
2022-08-17T14:53:12.124Z,32.70
2022-08-17T14:55:41.809Z,32.70
2022-08-17T14:58:09.467Z,32.70
2022-08-17T15:00:38.491Z,32.70
2022-08-17T15:03:05.869Z,32.80
2022-08-17T15:05:39.068Z,32.80
2022-08-17T15:08:07.077Z,32.80
2022-08-17T15:10:35.164Z,32.80
2022-08-17T15:13:02.323Z,32.80
2022-08-17T15:15:29.856Z,32.70
2022-08-17T15:17:57.846Z,32.80
2022-08-17T15:20:29.784Z,32.80
2022-08-17T15:22:58.911Z,32.80
2022-08-17T15:25:29.212Z,32.90
2022-08-17T15:27:56.544Z,32.90
2022-08-17T15:30:25.854Z,32.90
2022-08-17T15:32:55.485Z,32.80
2022-08-17T15:35:30.669Z,32.90
2022-08-17T15:38:11.264Z,32.80
2022-08-17T15:40:44.546Z,32.80
2022-08-17T15:43:23.306Z,32.80
2022-08-17T15:46:12.174Z,32.80
2022-08-17T15:48:42.092Z,32.80
2022-08-17T15:51:28.505Z,32.80
2022-08-17T15:54:17.270Z,32.80
2022-08-17T15:56:50.305Z,32.80
2022-08-17T15:59:17.359Z,32.80
2022-08-17T16:03:01.027Z,32.70
2022-08-17T16:06:05.981Z,32.70
2022-08-17T16:08:36.262Z,32.70
2022-08-17T16:11:04.360Z,32.70
2022-08-17T16:13:32.414Z,32.60
2022-08-17T16:15:59.264Z,32.60
2022-08-17T16:18:31.355Z,32.50
2022-08-17T16:21:25.234Z,32.50
2022-08-17T16:24:00.624Z,32.40
2022-08-17T16:26:30.076Z,32.30
2022-08-17T16:28:59.478Z,32.30
2022-08-17T16:31:26.911Z,32.20
2022-08-17T16:34:16.183Z,32.20
2022-08-17T16:36:41.597Z,32.10
2022-08-17T16:39:21.471Z,32.10
2022-08-17T16:41:48.636Z,32.00
2022-08-17T16:44:18.943Z,32.00
2022-08-17T16:46:48.231Z,31.90
2022-08-17T16:49:33.622Z,31.90
2022-08-17T16:52:05.236Z,31.80
2022-08-17T16:54:35.194Z,31.70
2022-08-17T16:57:04.948Z,31.60
2022-08-17T16:59:40.962Z,31.50
2022-08-17T17:02:13.722Z,31.40
2022-08-17T17:04:55.082Z,31.40
2022-08-17T17:07:37.478Z,31.30
2022-08-17T17:10:15.239Z,31.20
2022-08-17T17:13:03.747Z,31.10
2022-08-17T17:15:41.548Z,31.00
2022-08-17T17:18:14.740Z,30.90
2022-08-17T17:20:56.722Z,30.90
2022-08-17T17:23:56.386Z,30.80
2022-08-17T17:26:44.840Z,30.70
2022-08-17T17:29:48.610Z,30.60
2022-08-17T17:33:34.111Z,30.60
2022-08-17T17:36:31.138Z,30.50
2022-08-17T17:39:09.595Z,30.50
2022-08-17T17:41:51.452Z,30.40
2022-08-17T17:44:25.932Z,30.40
2022-08-17T17:46:58.098Z,30.30
2022-08-17T17:49:38.074Z,30.30
2022-08-17T17:52:28.361Z,30.20
2022-08-17T17:55:25.359Z,30.10
2022-08-17T17:58:02.808Z,30.10
2022-08-17T18:00:44.329Z,30.00
2022-08-17T18:03:59.020Z,29.90
2022-08-17T18:06:49.929Z,29.80
2022-08-17T18:10:01.612Z,29.70
2022-08-17T18:13:03.610Z,29.60
2022-08-17T18:15:54.300Z,29.60
2022-08-17T18:18:40.310Z,29.50
2022-08-17T18:21:16.448Z,29.40
2022-08-17T18:24:01.158Z,29.40
2022-08-17T18:26:36.494Z,29.30
2022-08-17T18:29:27.539Z,29.30
2022-08-17T18:32:40.723Z,29.10
2022-08-17T18:35:10.351Z,29.10
2022-08-17T18:37:47.735Z,28.90
2022-08-17T18:40:18.095Z,28.90
2022-08-17T18:43:05.523Z,28.80
2022-08-17T18:45:47.879Z,28.70
2022-08-17T18:48:36.433Z,28.70
2022-08-17T18:51:42.770Z,28.50
2022-08-17T18:54:20.409Z,28.40
2022-08-17T18:57:00.615Z,28.40
2022-08-17T18:59:45.071Z,28.30
2022-08-17T19:05:25.542Z,28.10
2022-08-17T19:07:52.748Z,28.10
2022-08-17T19:10:45.920Z,28.00
2022-08-17T19:13:27.501Z,28.00
2022-08-17T19:16:34.372Z,27.90
2022-08-17T19:19:33.314Z,27.80
2022-08-17T19:22:29.209Z,27.80
2022-08-17T19:25:24.748Z,27.70
2022-08-17T19:28:21.547Z,27.70
2022-08-17T19:30:56.222Z,27.60
2022-08-17T19:33:24.931Z,27.50
2022-08-17T19:36:26.214Z,27.50
2022-08-17T19:39:06.870Z,27.50
2022-08-17T19:41:51.547Z,27.50
2022-08-17T19:44:46.412Z,27.50
2022-08-17T19:48:04.563Z,27.40
2022-08-17T19:50:55.572Z,27.30
2022-08-17T19:54:15.014Z,27.30
2022-08-17T19:57:23.215Z,27.20
2022-08-17T20:00:00.535Z,27.20
2022-08-17T20:03:16.410Z,27.10
2022-08-17T20:06:14.505Z,27.10
2022-08-17T20:08:54.093Z,27.00
2022-08-17T20:11:34.136Z,27.00
2022-08-17T20:14:30.294Z,27.00
2022-08-17T20:17:01.933Z,27.00
2022-08-17T20:20:19.581Z,27.00
2022-08-17T20:23:12.534Z,26.90
2022-08-17T20:26:27.408Z,26.80
2022-08-17T20:29:16.579Z,26.80
2022-08-17T20:31:55.643Z,26.80
2022-08-17T20:34:38.084Z,26.80
2022-08-17T20:37:13.009Z,26.70
2022-08-17T20:39:41.917Z,26.70
2022-08-17T20:42:20.770Z,26.70
2022-08-17T20:45:26.333Z,26.70
2022-08-17T20:48:33.307Z,26.60
2022-08-17T20:51:09.213Z,26.60
2022-08-17T20:53:48.236Z,26.60
2022-08-17T20:56:49.226Z,26.50
2022-08-17T20:59:25.809Z,26.50
2022-08-17T21:02:18.502Z,26.50
2022-08-17T21:04:54.787Z,26.50
2022-08-17T21:07:53.587Z,26.40
2022-08-17T21:10:26.192Z,26.40
2022-08-17T21:13:13.903Z,26.30
2022-08-17T21:15:48.484Z,26.30
2022-08-17T21:18:38.750Z,26.30
2022-08-17T21:21:24.153Z,26.20
2022-08-17T21:24:28.567Z,26.10
2022-08-17T21:27:38.793Z,26.00
2022-08-17T21:30:06.709Z,25.90
2022-08-17T21:32:39.702Z,25.90
2022-08-17T21:35:54.513Z,25.80
2022-08-17T21:38:53.366Z,25.70
2022-08-17T21:41:29.490Z,25.60
2022-08-17T21:44:12.684Z,25.50
2022-08-17T21:46:46.486Z,25.50
2022-08-17T21:49:17.896Z,25.40
2022-08-17T21:51:53.638Z,25.30
2022-08-17T21:54:36.791Z,25.30
2022-08-17T21:57:14.511Z,25.20
2022-08-17T21:59:44.165Z,25.20
2022-08-17T22:02:20.332Z,25.10
2022-08-17T22:05:10.200Z,25.00
2022-08-17T22:07:43.101Z,25.00
2022-08-17T22:10:38.384Z,24.90
2022-08-17T22:13:24.380Z,24.90
2022-08-17T22:16:28.428Z,24.80
2022-08-17T22:18:58.700Z,24.80
2022-08-17T22:21:26.718Z,24.70
2022-08-17T22:24:22.650Z,24.70
2022-08-17T22:27:19.324Z,24.60
2022-08-17T22:29:58.589Z,24.60
2022-08-17T22:32:44.814Z,24.60
2022-08-17T22:35:33.308Z,24.50
2022-08-17T22:38:18.487Z,24.50
2022-08-17T22:40:49.955Z,24.40
2022-08-17T22:43:21.304Z,24.40
2022-08-17T22:45:59.744Z,24.40
2022-08-17T22:48:31.145Z,24.30
2022-08-17T22:51:14.212Z,24.30
2022-08-17T22:54:09.489Z,24.30
2022-08-17T22:56:55.943Z,24.20
2022-08-17T22:59:48.326Z,24.10
2022-08-17T23:02:29.374Z,24.10
2022-08-17T23:05:16.818Z,24.10
2022-08-17T23:07:46.634Z,24.10
2022-08-17T23:10:14.979Z,24.10
2022-08-17T23:12:42.034Z,24.10
2022-08-17T23:15:18.144Z,24.10
2022-08-17T23:17:45.775Z,24.10
2022-08-17T23:20:15.180Z,24.00
2022-08-17T23:22:51.235Z,24.10
2022-08-17T23:25:29.372Z,24.10
2022-08-17T23:27:58.459Z,24.10
2022-08-17T23:30:25.580Z,24.10
2022-08-17T23:32:55.783Z,24.10
2022-08-17T23:35:39.181Z,24.10
2022-08-17T23:38:10.184Z,24.10
2022-08-17T23:40:39.523Z,24.10
2022-08-17T23:43:23.732Z,24.10
2022-08-17T23:45:54.421Z,24.10
2022-08-17T23:48:36.159Z,24.00
2022-08-17T23:51:20.476Z,24.00
2022-08-17T23:54:07.182Z,23.90
2022-08-17T23:56:41.889Z,23.90
2022-08-17T23:59:08.995Z,23.90
